GFA545 OMAA-OBBI
Flight info
| Callsign | GFA545 |
|---|---|
| Flight time | 0h 50m |
| Altitude | 26000 |
| Route | BOSEV N563 IMGUX P699 ORMID M556 ORDIG |
| Aircraft | A320/M-SDE3FGHIRWY/LB1 |
Departure
| Time | 2026-04-27 17:57 |
|---|---|
| Airport | Zayed International Airport (OMAA) |
Arrival
| Time | 2026-04-27 18:48 |
|---|---|
| Airport | Bahrain International Airport (OBBI) |
| Time | Latitude | Longitude | Altitude | Speed | Heading |
|---|---|---|---|---|---|
| 2026-04-27 17:36 | 24.44397 | 54.64421 | 76 ft | 0 kts | 47° |
| 2026-04-27 17:46 | 24.44393 | 54.64416 | 92 ft | 2 kts | 47° |
| 2026-04-27 17:46 | 24.44382 | 54.64402 | 68 ft | 2 kts | 50° |
| 2026-04-27 17:46 | 24.44372 | 54.64388 | 65 ft | 2 kts | 53° |
| 2026-04-27 17:46 | 24.44362 | 54.64373 | 67 ft | 2 kts | 59° |
| 2026-04-27 17:47 | 24.44354 | 54.64357 | 67 ft | 2 kts | 74° |
| 2026-04-27 17:47 | 24.44352 | 54.64345 | 66 ft | 2 kts | 98° |
| 2026-04-27 17:47 | 24.44358 | 54.64328 | 69 ft | 1 kts | 127° |
| 2026-04-27 17:47 | 24.44358 | 54.64327 | 70 ft | 0 kts | 127° |
| 2026-04-27 17:50 | 24.44356 | 54.64331 | 69 ft | 4 kts | 126° |
| 2026-04-27 17:50 | 24.44278 | 54.64414 | 74 ft | 7 kts | 172° |
| 2026-04-27 17:50 | 24.44236 | 54.64395 | 76 ft | 6 kts | 218° |
| 2026-04-27 17:51 | 24.44206 | 54.64370 | 76 ft | 7 kts | 217° |
| 2026-04-27 17:51 | 24.44153 | 54.64326 | 71 ft | 7 kts | 217° |
| 2026-04-27 17:51 | 24.44114 | 54.64306 | 77 ft | 5 kts | 179° |
| 2026-04-27 17:51 | 24.44069 | 54.64347 | 72 ft | 12 kts | 130° |
| 2026-04-27 17:52 | 24.44002 | 54.64443 | 72 ft | 18 kts | 128° |
| 2026-04-27 17:52 | 24.43927 | 54.64548 | 70 ft | 16 kts | 127° |
| 2026-04-27 17:52 | 24.43855 | 54.64650 | 72 ft | 19 kts | 128° |
| 2026-04-27 17:52 | 24.43761 | 54.64783 | 69 ft | 25 kts | 128° |
| 2026-04-27 17:53 | 24.43650 | 54.64938 | 67 ft | 27 kts | 128° |
| 2026-04-27 17:53 | 24.43531 | 54.65106 | 75 ft | 29 kts | 127° |
| 2026-04-27 17:53 | 24.43405 | 54.65284 | 74 ft | 30 kts | 128° |
| 2026-04-27 17:53 | 24.43273 | 54.65469 | 76 ft | 32 kts | 128° |
| 2026-04-27 17:54 | 24.43146 | 54.65648 | 74 ft | 29 kts | 128° |
| 2026-04-27 17:54 | 24.43017 | 54.65830 | 70 ft | 31 kts | 127° |
| 2026-04-27 17:54 | 24.42880 | 54.66021 | 69 ft | 32 kts | 128° |
| 2026-04-27 17:54 | 24.42776 | 54.66170 | 68 ft | 14 kts | 128° |
| 2026-04-27 17:55 | 24.42704 | 54.66195 | 69 ft | 11 kts | 207° |
| 2026-04-27 17:55 | 24.42651 | 54.66150 | 73 ft | 9 kts | 223° |
| 2026-04-27 17:55 | 24.42616 | 54.66111 | 76 ft | 6 kts | 241° |
| 2026-04-27 17:55 | 24.42623 | 54.66081 | 78 ft | 3 kts | 306° |
| 2026-04-27 17:56 | 24.42632 | 54.66068 | 76 ft | 0 kts | 306° |
| 2026-04-27 17:56 | 24.42666 | 54.66017 | 74 ft | 34 kts | 306° |
| 2026-04-27 17:56 | 24.42969 | 54.65591 | 70 ft | 106 kts | 308° |
| 2026-04-27 17:56 | 24.43546 | 54.64780 | 73 ft | 161 kts | 308° |
| 2026-04-27 17:57 | 24.44245 | 54.63778 | 623 ft | 165 kts | 307° |
| 2026-04-27 17:57 | 24.44960 | 54.62781 | 1336 ft | 164 kts | 309° |
| 2026-04-27 17:57 | 24.45656 | 54.61806 | 2079 ft | 163 kts | 309° |
| 2026-04-27 17:57 | 24.46399 | 54.60749 | 2350 ft | 186 kts | 309° |
| 2026-04-27 17:58 | 24.47234 | 54.59560 | 2557 ft | 211 kts | 310° |
| 2026-04-27 17:58 | 24.48197 | 54.58198 | 2884 ft | 236 kts | 310° |
| 2026-04-27 17:58 | 24.49246 | 54.56721 | 3425 ft | 250 kts | 310° |
| 2026-04-27 17:58 | 24.50332 | 54.55200 | 4253 ft | 255 kts | 310° |
| 2026-04-27 17:59 | 24.51413 | 54.53683 | 5094 ft | 257 kts | 310° |
| 2026-04-27 17:59 | 24.52528 | 54.52117 | 5939 ft | 261 kts | 309° |
| 2026-04-27 17:59 | 24.53653 | 54.50531 | 6748 ft | 264 kts | 309° |
| 2026-04-27 17:59 | 24.54781 | 54.48938 | 7553 ft | 267 kts | 309° |
| 2026-04-27 18:00 | 24.55932 | 54.47309 | 8375 ft | 270 kts | 308° |
| 2026-04-27 18:00 | 24.57088 | 54.45673 | 8869 ft | 275 kts | 309° |
| 2026-04-27 18:00 | 24.58264 | 54.44007 | 9006 ft | 275 kts | 308° |
| 2026-04-27 18:00 | 24.59438 | 54.42345 | 9032 ft | 274 kts | 308° |
| 2026-04-27 18:01 | 24.60596 | 54.40706 | 9040 ft | 274 kts | 308° |
| 2026-04-27 18:01 | 24.61770 | 54.39045 | 9032 ft | 274 kts | 308° |
| 2026-04-27 18:01 | 24.62943 | 54.37387 | 9044 ft | 274 kts | 308° |
| 2026-04-27 18:01 | 24.64105 | 54.35748 | 9064 ft | 275 kts | 308° |
| 2026-04-27 18:02 | 24.65294 | 54.34076 | 9752 ft | 278 kts | 308° |
| 2026-04-27 18:02 | 24.66507 | 54.32368 | 10375 ft | 290 kts | 308° |
| 2026-04-27 18:02 | 24.67781 | 54.30570 | 10601 ft | 313 kts | 308° |
| 2026-04-27 18:02 | 24.69163 | 54.28614 | 10894 ft | 331 kts | 307° |
| 2026-04-27 18:03 | 24.70603 | 54.26577 | 11477 ft | 339 kts | 307° |
| 2026-04-27 18:03 | 24.72046 | 54.24536 | 12123 ft | 344 kts | 307° |
| 2026-04-27 18:03 | 24.73533 | 54.22428 | 12781 ft | 350 kts | 307° |
| 2026-04-27 18:03 | 24.75041 | 54.20293 | 13434 ft | 354 kts | 307° |
| 2026-04-27 18:04 | 24.76571 | 54.18129 | 14039 ft | 359 kts | 306° |
| 2026-04-27 18:04 | 24.78106 | 54.15957 | 14653 ft | 362 kts | 306° |
| 2026-04-27 18:04 | 24.79659 | 54.13759 | 15278 ft | 364 kts | 306° |
| 2026-04-27 18:04 | 24.81211 | 54.11562 | 15904 ft | 367 kts | 306° |
| 2026-04-27 18:05 | 24.82769 | 54.09352 | 16515 ft | 370 kts | 305° |
| 2026-04-27 18:05 | 24.84273 | 54.07029 | 17135 ft | 371 kts | 299° |
| 2026-04-27 18:05 | 24.85627 | 54.04623 | 17747 ft | 374 kts | 299° |
| 2026-04-27 18:05 | 24.86998 | 54.02179 | 18339 ft | 377 kts | 299° |
| 2026-04-27 18:06 | 24.88388 | 53.99694 | 18893 ft | 379 kts | 299° |
| 2026-04-27 18:06 | 24.89772 | 53.97216 | 19458 ft | 381 kts | 298° |
| 2026-04-27 18:06 | 24.91154 | 53.94741 | 20045 ft | 383 kts | 298° |
| 2026-04-27 18:06 | 24.92558 | 53.92227 | 20630 ft | 385 kts | 298° |
| 2026-04-27 18:07 | 24.93953 | 53.89730 | 21196 ft | 387 kts | 298° |
| 2026-04-27 18:07 | 24.95367 | 53.87195 | 21755 ft | 389 kts | 298° |
| 2026-04-27 18:07 | 24.96790 | 53.84648 | 22309 ft | 391 kts | 298° |
| 2026-04-27 18:07 | 24.98225 | 53.82082 | 22844 ft | 393 kts | 298° |
| 2026-04-27 18:08 | 24.99661 | 53.79515 | 23365 ft | 395 kts | 298° |
| 2026-04-27 18:08 | 25.01113 | 53.76947 | 23802 ft | 399 kts | 300° |
| 2026-04-27 18:08 | 25.02880 | 53.74547 | 24209 ft | 406 kts | 310° |
| 2026-04-27 18:08 | 25.04924 | 53.72363 | 24623 ft | 409 kts | 311° |
| 2026-04-27 18:09 | 25.06977 | 53.70171 | 25027 ft | 410 kts | 311° |
| 2026-04-27 18:09 | 25.09027 | 53.67973 | 25428 ft | 412 kts | 311° |
| 2026-04-27 18:09 | 25.11059 | 53.65788 | 25736 ft | 413 kts | 311° |
| 2026-04-27 18:09 | 25.13121 | 53.63569 | 25817 ft | 413 kts | 311° |
| 2026-04-27 18:10 | 25.15189 | 53.61347 | 25829 ft | 413 kts | 311° |
| 2026-04-27 18:10 | 25.17227 | 53.59159 | 25830 ft | 413 kts | 311° |
| 2026-04-27 18:10 | 25.19288 | 53.56947 | 25828 ft | 413 kts | 311° |
| 2026-04-27 18:10 | 25.21349 | 53.54729 | 25829 ft | 413 kts | 311° |
| 2026-04-27 18:11 | 25.23410 | 53.52505 | 25827 ft | 413 kts | 311° |
| 2026-04-27 18:11 | 25.25449 | 53.50305 | 25830 ft | 413 kts | 311° |
| 2026-04-27 18:11 | 25.27527 | 53.48064 | 25831 ft | 414 kts | 311° |
| 2026-04-27 18:11 | 25.29586 | 53.45847 | 25831 ft | 415 kts | 311° |
| 2026-04-27 18:12 | 25.31635 | 53.43642 | 25827 ft | 415 kts | 311° |
| 2026-04-27 18:12 | 25.33709 | 53.41410 | 25831 ft | 415 kts | 311° |
| 2026-04-27 18:12 | 25.35781 | 53.39177 | 25828 ft | 415 kts | 311° |
| 2026-04-27 18:12 | 25.37850 | 53.36943 | 25823 ft | 415 kts | 311° |
| 2026-04-27 18:13 | 25.39899 | 53.34732 | 25825 ft | 415 kts | 311° |
| 2026-04-27 18:13 | 25.41972 | 53.32496 | 25821 ft | 415 kts | 311° |
| 2026-04-27 18:13 | 25.44046 | 53.30254 | 25820 ft | 415 kts | 311° |
| 2026-04-27 18:13 | 25.46099 | 53.28035 | 25822 ft | 415 kts | 311° |
| 2026-04-27 18:14 | 25.48017 | 53.25657 | 25820 ft | 410 kts | 302° |
| 2026-04-27 18:14 | 25.49501 | 53.22972 | 25817 ft | 406 kts | 293° |
| 2026-04-27 18:14 | 25.50518 | 53.20097 | 25820 ft | 402 kts | 284° |
| 2026-04-27 18:14 | 25.51168 | 53.17087 | 25818 ft | 401 kts | 281° |
| 2026-04-27 18:15 | 25.51789 | 53.14052 | 25823 ft | 401 kts | 281° |
| 2026-04-27 18:15 | 25.52398 | 53.11075 | 25817 ft | 402 kts | 281° |
| 2026-04-27 18:15 | 25.53014 | 53.08053 | 25820 ft | 402 kts | 281° |
| 2026-04-27 18:15 | 25.53629 | 53.05034 | 25816 ft | 402 kts | 281° |
| 2026-04-27 18:16 | 25.54246 | 53.01996 | 25817 ft | 402 kts | 281° |
| 2026-04-27 18:16 | 25.54857 | 52.98991 | 25823 ft | 402 kts | 281° |
| 2026-04-27 18:16 | 25.55473 | 52.95964 | 25820 ft | 402 kts | 281° |
| 2026-04-27 18:16 | 25.56084 | 52.92969 | 25821 ft | 402 kts | 282° |
| 2026-04-27 18:17 | 25.56986 | 52.90017 | 25819 ft | 405 kts | 292° |
| 2026-04-27 18:17 | 25.58300 | 52.87241 | 25823 ft | 406 kts | 296° |
| 2026-04-27 18:17 | 25.59660 | 52.84495 | 25817 ft | 406 kts | 296° |
| 2026-04-27 18:17 | 25.61011 | 52.81744 | 25825 ft | 406 kts | 295° |
| 2026-04-27 18:18 | 25.62340 | 52.79019 | 25830 ft | 406 kts | 295° |
| 2026-04-27 18:18 | 25.63682 | 52.76259 | 25832 ft | 406 kts | 295° |
| 2026-04-27 18:18 | 25.65013 | 52.73521 | 25834 ft | 405 kts | 295° |
| 2026-04-27 18:18 | 25.66356 | 52.70756 | 25834 ft | 405 kts | 295° |
| 2026-04-27 18:19 | 25.67694 | 52.67998 | 25840 ft | 405 kts | 295° |
| 2026-04-27 18:19 | 25.69012 | 52.65285 | 25842 ft | 404 kts | 295° |
| 2026-04-27 18:19 | 25.70359 | 52.62514 | 25844 ft | 404 kts | 295° |
| 2026-04-27 18:19 | 25.71677 | 52.59801 | 25845 ft | 404 kts | 295° |
| 2026-04-27 18:20 | 25.73016 | 52.57051 | 25849 ft | 403 kts | 295° |
| 2026-04-27 18:20 | 25.74349 | 52.54306 | 25852 ft | 403 kts | 294° |
| 2026-04-27 18:20 | 25.75662 | 52.51599 | 25849 ft | 402 kts | 294° |
| 2026-04-27 18:20 | 25.76986 | 52.48847 | 25853 ft | 401 kts | 294° |
| 2026-04-27 18:21 | 25.78277 | 52.46096 | 25853 ft | 400 kts | 293° |
| 2026-04-27 18:21 | 25.79533 | 52.43375 | 25853 ft | 400 kts | 293° |
| 2026-04-27 18:21 | 25.80801 | 52.40616 | 25851 ft | 399 kts | 293° |
| 2026-04-27 18:21 | 25.82068 | 52.37861 | 25848 ft | 399 kts | 293° |
| 2026-04-27 18:22 | 25.82902 | 52.36051 | 25848 ft | 399 kts | 293° |
| 2026-04-27 18:22 | 25.84585 | 52.32410 | 25838 ft | 399 kts | 293° |
| 2026-04-27 18:22 | 25.85854 | 52.29670 | 25833 ft | 398 kts | 293° |
| 2026-04-27 18:22 | 25.86766 | 52.27846 | 25829 ft | 401 kts | 298° |
| 2026-04-27 18:23 | 25.88450 | 52.25392 | 25828 ft | 406 kts | 307° |
| 2026-04-27 18:23 | 25.90373 | 52.23078 | 25827 ft | 407 kts | 307° |
| 2026-04-27 18:23 | 25.92303 | 52.20755 | 25825 ft | 407 kts | 307° |
| 2026-04-27 18:23 | 25.94204 | 52.18464 | 25823 ft | 407 kts | 307° |
| 2026-04-27 18:24 | 25.96132 | 52.16136 | 25821 ft | 407 kts | 307° |
| 2026-04-27 18:24 | 25.98059 | 52.13811 | 25826 ft | 407 kts | 307° |
| 2026-04-27 18:24 | 25.99956 | 52.11522 | 25827 ft | 407 kts | 307° |
| 2026-04-27 18:24 | 26.01885 | 52.09193 | 25829 ft | 407 kts | 307° |
| 2026-04-27 18:25 | 26.03803 | 52.06868 | 25826 ft | 407 kts | 307° |
| 2026-04-27 18:25 | 26.05702 | 52.04562 | 25832 ft | 407 kts | 307° |
| 2026-04-27 18:25 | 26.07617 | 52.02236 | 25834 ft | 407 kts | 307° |
| 2026-04-27 18:25 | 26.09539 | 51.99905 | 25837 ft | 407 kts | 307° |
| 2026-04-27 18:26 | 26.11433 | 51.97610 | 25841 ft | 407 kts | 307° |
| 2026-04-27 18:26 | 26.13355 | 51.95281 | 25845 ft | 407 kts | 307° |
| 2026-04-27 18:26 | 26.15278 | 51.92951 | 25842 ft | 407 kts | 307° |
| 2026-04-27 18:26 | 26.17196 | 51.90625 | 25844 ft | 406 kts | 307° |
| 2026-04-27 18:27 | 26.19099 | 51.88317 | 25845 ft | 406 kts | 307° |
| 2026-04-27 18:27 | 26.21008 | 51.85999 | 25846 ft | 406 kts | 307° |
| 2026-04-27 18:27 | 26.22921 | 51.83671 | 25845 ft | 406 kts | 307° |
| 2026-04-27 18:27 | 26.24723 | 51.81326 | 25847 ft | 402 kts | 301° |
| 2026-04-27 18:28 | 26.26174 | 51.78690 | 25847 ft | 396 kts | 292° |
| 2026-04-27 18:28 | 26.27396 | 51.75943 | 25843 ft | 395 kts | 292° |
| 2026-04-27 18:28 | 26.28618 | 51.73193 | 25839 ft | 395 kts | 292° |
| 2026-04-27 18:28 | 26.29827 | 51.70471 | 25837 ft | 395 kts | 292° |
| 2026-04-27 18:29 | 26.31046 | 51.67727 | 25835 ft | 395 kts | 292° |
| 2026-04-27 18:29 | 26.32270 | 51.64970 | 25833 ft | 395 kts | 292° |
| 2026-04-27 18:29 | 26.33479 | 51.62252 | 25833 ft | 395 kts | 292° |
| 2026-04-27 18:29 | 26.34706 | 51.59501 | 25828 ft | 395 kts | 292° |
| 2026-04-27 18:30 | 26.35933 | 51.56747 | 25692 ft | 396 kts | 292° |
| 2026-04-27 18:30 | 26.37165 | 51.53988 | 25445 ft | 395 kts | 292° |
| 2026-04-27 18:30 | 26.38240 | 51.51246 | 24870 ft | 388 kts | 286° |
| 2026-04-27 18:30 | 26.39153 | 51.48411 | 24232 ft | 385 kts | 286° |
| 2026-04-27 18:31 | 26.40053 | 51.45599 | 23613 ft | 383 kts | 286° |
| 2026-04-27 18:31 | 26.40943 | 51.42796 | 22949 ft | 381 kts | 286° |
| 2026-04-27 18:31 | 26.41816 | 51.40040 | 22353 ft | 378 kts | 287° |
| 2026-04-27 18:31 | 26.42693 | 51.37281 | 21816 ft | 373 kts | 287° |
| 2026-04-27 18:32 | 26.43553 | 51.34584 | 21286 ft | 370 kts | 287° |
| 2026-04-27 18:32 | 26.44416 | 51.31885 | 20775 ft | 367 kts | 287° |
| 2026-04-27 18:32 | 26.45057 | 51.29143 | 20266 ft | 361 kts | 277° |
| 2026-04-27 18:32 | 26.45176 | 51.26400 | 19784 ft | 357 kts | 266° |
| 2026-04-27 18:33 | 26.44791 | 51.23671 | 19297 ft | 355 kts | 256° |
| 2026-04-27 18:33 | 26.43952 | 51.21089 | 18818 ft | 353 kts | 249° |
| 2026-04-27 18:33 | 26.43005 | 51.18555 | 18327 ft | 351 kts | 249° |
| 2026-04-27 18:33 | 26.42084 | 51.16076 | 17811 ft | 350 kts | 249° |
| 2026-04-27 18:34 | 26.41157 | 51.13567 | 17294 ft | 347 kts | 249° |
| 2026-04-27 18:34 | 26.40242 | 51.11084 | 16800 ft | 344 kts | 249° |
| 2026-04-27 18:34 | 26.39337 | 51.08635 | 16304 ft | 342 kts | 249° |
| 2026-04-27 18:34 | 26.38428 | 51.06180 | 15796 ft | 341 kts | 249° |
| 2026-04-27 18:35 | 26.37518 | 51.03736 | 15293 ft | 340 kts | 249° |
| 2026-04-27 18:35 | 26.36610 | 51.01302 | 14783 ft | 339 kts | 249° |
| 2026-04-27 18:35 | 26.35703 | 50.98874 | 14273 ft | 339 kts | 249° |
| 2026-04-27 18:35 | 26.34803 | 50.96472 | 13767 ft | 339 kts | 250° |
| 2026-04-27 18:36 | 26.33890 | 50.94031 | 13192 ft | 338 kts | 250° |
| 2026-04-27 18:36 | 26.33247 | 50.91558 | 12667 ft | 333 kts | 266° |
| 2026-04-27 18:36 | 26.33451 | 50.89035 | 12314 ft | 325 kts | 286° |
| 2026-04-27 18:36 | 26.34456 | 50.86789 | 11817 ft | 325 kts | 306° |
| 2026-04-27 18:37 | 26.36163 | 50.85116 | 11300 ft | 330 kts | 327° |
| 2026-04-27 18:37 | 26.38158 | 50.83894 | 10772 ft | 329 kts | 324° |
| 2026-04-27 18:37 | 26.39897 | 50.82310 | 10551 ft | 315 kts | 311° |
| 2026-04-27 18:37 | 26.41171 | 50.80417 | 10418 ft | 299 kts | 297° |
| 2026-04-27 18:38 | 26.41829 | 50.78278 | 10277 ft | 286 kts | 276° |
| 2026-04-27 18:38 | 26.41688 | 50.76107 | 10160 ft | 280 kts | 253° |
| 2026-04-27 18:38 | 26.40810 | 50.74206 | 10076 ft | 282 kts | 232° |
| 2026-04-27 18:38 | 26.39343 | 50.72723 | 9725 ft | 288 kts | 221° |
| 2026-04-27 18:39 | 26.38015 | 50.71049 | 9248 ft | 285 kts | 242° |
| 2026-04-27 18:39 | 26.37486 | 50.68965 | 8880 ft | 279 kts | 270° |
| 2026-04-27 18:39 | 26.37964 | 50.66927 | 8225 ft | 277 kts | 300° |
| 2026-04-27 18:39 | 26.39272 | 50.65364 | 7484 ft | 280 kts | 316° |
| 2026-04-27 18:40 | 26.40639 | 50.63811 | 6768 ft | 278 kts | 307° |
| 2026-04-27 18:40 | 26.41745 | 50.62064 | 6204 ft | 274 kts | 301° |
| 2026-04-27 18:40 | 26.42792 | 50.60291 | 5643 ft | 272 kts | 301° |
| 2026-04-27 18:40 | 26.43773 | 50.58609 | 5497 ft | 248 kts | 300° |
| 2026-04-27 18:41 | 26.44669 | 50.57067 | 5442 ft | 224 kts | 300° |
| 2026-04-27 18:41 | 26.45475 | 50.55668 | 5374 ft | 205 kts | 297° |
| 2026-04-27 18:41 | 26.45939 | 50.54270 | 5341 ft | 185 kts | 274° |
| 2026-04-27 18:41 | 26.45820 | 50.52908 | 5247 ft | 170 kts | 250° |
| 2026-04-27 18:42 | 26.45239 | 50.51828 | 5113 ft | 160 kts | 227° |
| 2026-04-27 18:42 | 26.44664 | 50.51309 | 5027 ft | 155 kts | 212° |
| 2026-04-27 18:42 | 26.43264 | 50.50838 | 4499 ft | 172 kts | 189° |
| 2026-04-27 18:42 | 26.42046 | 50.50588 | 3930 ft | 186 kts | 196° |
| 2026-04-27 18:43 | 26.40742 | 50.50189 | 3257 ft | 202 kts | 197° |
| 2026-04-27 18:43 | 26.39339 | 50.49709 | 2753 ft | 210 kts | 198° |
| 2026-04-27 18:43 | 26.37991 | 50.49223 | 2642 ft | 197 kts | 198° |
| 2026-04-27 18:43 | 26.36684 | 50.48963 | 2555 ft | 185 kts | 177° |
| 2026-04-27 18:44 | 26.35516 | 50.49348 | 2459 ft | 174 kts | 152° |
| 2026-04-27 18:44 | 26.34644 | 50.50237 | 2310 ft | 170 kts | 128° |
| 2026-04-27 18:44 | 26.34004 | 50.51345 | 2114 ft | 167 kts | 126° |
| 2026-04-27 18:44 | 26.33391 | 50.52412 | 1941 ft | 162 kts | 126° |
| 2026-04-27 18:45 | 26.32780 | 50.53474 | 1719 ft | 162 kts | 126° |
| 2026-04-27 18:45 | 26.32174 | 50.54527 | 1519 ft | 160 kts | 126° |
| 2026-04-27 18:45 | 26.31602 | 50.55523 | 1312 ft | 144 kts | 126° |
| 2026-04-27 18:45 | 26.31084 | 50.56423 | 1140 ft | 136 kts | 125° |
| 2026-04-27 18:46 | 26.30576 | 50.57303 | 968 ft | 134 kts | 125° |
| 2026-04-27 18:46 | 26.30073 | 50.58176 | 814 ft | 134 kts | 123° |
| 2026-04-27 18:46 | 26.29569 | 50.59051 | 650 ft | 134 kts | 123° |
| 2026-04-27 18:46 | 26.29060 | 50.59933 | 481 ft | 134 kts | 121° |
| 2026-04-27 18:47 | 26.28558 | 50.60820 | 308 ft | 135 kts | 122° |
| 2026-04-27 18:47 | 26.28058 | 50.61689 | 102 ft | 134 kts | 123° |
| 2026-04-27 18:47 | 26.27546 | 50.62541 | 19 ft | 129 kts | 123° |
| 2026-04-27 18:47 | 26.27162 | 50.63233 | 16 ft | 60 kts | 123° |
| 2026-04-27 18:48 | 26.27013 | 50.63478 | 15 ft | 9 kts | 145° |
| 2026-04-27 18:48 | 26.26950 | 50.63476 | 15 ft | 9 kts | 211° |
| 2026-04-27 18:48 | 26.26925 | 50.63459 | 17 ft | 0 kts | 212° |
| 2026-04-27 18:49 | 26.26924 | 50.63457 | 17 ft | 3 kts | 212° |
| 2026-04-27 18:49 | 26.26836 | 50.63397 | 15 ft | 20 kts | 212° |
| 2026-04-27 18:49 | 26.26785 | 50.63361 | 17 ft | 2 kts | 213° |
| 2026-04-27 18:50 | 26.26781 | 50.63357 | 17 ft | 3 kts | 214° |
| 2026-04-27 18:50 | 26.26768 | 50.63319 | 17 ft | 8 kts | 288° |
| 2026-04-27 18:50 | 26.26813 | 50.63229 | 17 ft | 19 kts | 302° |
| 2026-04-27 18:50 | 26.26850 | 50.63135 | 17 ft | 11 kts | 252° |
| 2026-04-27 18:51 | 26.26808 | 50.63081 | 17 ft | 9 kts | 213° |
| 2026-04-27 18:51 | 26.26793 | 50.63071 | 17 ft | 0 kts | 213° |